GMATT ELLX-EDFH
Flight info
| Callsign | GMATT |
|---|---|
| Flight time | 0h 16m |
| Altitude | 13000 |
| Route | ASMOX Y891 ROPUV |
| Aircraft | A320/M-SDE3FGHIRWY/LB1 |
Departure
| Time | 2026-05-06 19:07 |
|---|---|
| Airport | Luxembourg-Findel International Airport (ELLX) |
Arrival
| Time | 2026-05-06 19:23 |
|---|---|
| Airport | Frankfurt-Hahn Airport (EDFH) |
| Time | Latitude | Longitude | Altitude | Speed | Heading |
|---|---|---|---|---|---|
| 2026-05-06 18:44 | 49.63391 | 6.21791 | 1230 ft | 0 kts | 330° |
| 2026-05-06 19:00 | 49.63379 | 6.21802 | 1230 ft | 4 kts | 330° |
| 2026-05-06 19:00 | 49.63361 | 6.21818 | 1230 ft | 3 kts | 328° |
| 2026-05-06 19:01 | 49.63346 | 6.21845 | 1230 ft | 4 kts | 268° |
| 2026-05-06 19:01 | 49.63350 | 6.21882 | 1230 ft | 4 kts | 259° |
| 2026-05-06 19:01 | 49.63352 | 6.21900 | 1230 ft | 0 kts | 259° |
| 2026-05-06 19:04 | 49.63351 | 6.21894 | 1230 ft | 3 kts | 258° |
| 2026-05-06 19:04 | 49.63332 | 6.21831 | 1219 ft | 10 kts | 233° |
| 2026-05-06 19:04 | 49.63271 | 6.21835 | 1230 ft | 10 kts | 151° |
| 2026-05-06 19:04 | 49.63201 | 6.21896 | 1228 ft | 6 kts | 151° |
| 2026-05-06 19:05 | 49.63176 | 6.21949 | 1228 ft | 6 kts | 96° |
| 2026-05-06 19:05 | 49.63166 | 6.22024 | 1227 ft | 9 kts | 122° |
| 2026-05-06 19:05 | 49.63087 | 6.22107 | 1218 ft | 16 kts | 150° |
| 2026-05-06 19:05 | 49.62993 | 6.22094 | 1214 ft | 15 kts | 235° |
| 2026-05-06 19:06 | 49.62984 | 6.22069 | 1214 ft | 0 kts | 240° |
| 2026-05-06 19:06 | 49.62909 | 6.21865 | 1215 ft | 68 kts | 241° |
| 2026-05-06 19:07 | 49.62530 | 6.20841 | 1245 ft | 148 kts | 241° |
| 2026-05-06 19:07 | 49.61946 | 6.19283 | 1679 ft | 184 kts | 242° |
| 2026-05-06 19:07 | 49.61256 | 6.17451 | 2346 ft | 211 kts | 242° |
| 2026-05-06 19:07 | 49.60465 | 6.15400 | 3029 ft | 240 kts | 242° |
| 2026-05-06 19:08 | 49.59570 | 6.13076 | 3922 ft | 261 kts | 243° |
| 2026-05-06 19:08 | 49.58653 | 6.10599 | 4767 ft | 269 kts | 243° |
| 2026-05-06 19:08 | 49.57732 | 6.08076 | 5613 ft | 271 kts | 243° |
| 2026-05-06 19:08 | 49.56813 | 6.05484 | 6477 ft | 273 kts | 248° |
| 2026-05-06 19:09 | 49.56432 | 6.02681 | 7284 ft | 273 kts | 272° |
| 2026-05-06 19:09 | 49.56826 | 5.99830 | 7978 ft | 274 kts | 296° |
| 2026-05-06 19:09 | 49.57922 | 5.97463 | 8628 ft | 274 kts | 318° |
| 2026-05-06 19:09 | 49.59551 | 5.95944 | 9280 ft | 278 kts | 340° |
| 2026-05-06 19:10 | 49.61463 | 5.95540 | 9812 ft | 282 kts | 4° |
| 2026-05-06 19:10 | 49.63398 | 5.96441 | 10309 ft | 308 kts | 28° |
| 2026-05-06 19:10 | 49.65213 | 5.98406 | 11006 ft | 326 kts | 35° |
| 2026-05-06 19:10 | 49.67045 | 6.00532 | 12044 ft | 333 kts | 36° |
| 2026-05-06 19:11 | 49.68913 | 6.02715 | 12615 ft | 339 kts | 36° |
| 2026-05-06 19:11 | 49.70797 | 6.04919 | 12831 ft | 340 kts | 36° |
| 2026-05-06 19:11 | 49.72597 | 6.07278 | 12887 ft | 342 kts | 47° |
| 2026-05-06 19:11 | 49.73860 | 6.10391 | 12895 ft | 344 kts | 62° |
| 2026-05-06 19:12 | 49.74908 | 6.13714 | 12894 ft | 344 kts | 63° |
| 2026-05-06 19:12 | 49.75941 | 6.17044 | 12891 ft | 344 kts | 63° |
| 2026-05-06 19:12 | 49.76749 | 6.20518 | 12891 ft | 345 kts | 79° |
| 2026-05-06 19:12 | 49.77054 | 6.24204 | 12892 ft | 346 kts | 83° |
| 2026-05-06 19:13 | 49.77303 | 6.27900 | 12889 ft | 346 kts | 83° |
| 2026-05-06 19:13 | 49.77543 | 6.31606 | 12891 ft | 346 kts | 83° |
| 2026-05-06 19:13 | 49.77786 | 6.35307 | 12886 ft | 346 kts | 83° |
| 2026-05-06 19:13 | 49.78038 | 6.39012 | 12875 ft | 347 kts | 83° |
| 2026-05-06 19:14 | 49.78198 | 6.42736 | 12869 ft | 348 kts | 93° |
| 2026-05-06 19:14 | 49.77731 | 6.46402 | 12869 ft | 348 kts | 105° |
| 2026-05-06 19:14 | 49.77097 | 6.50019 | 12868 ft | 349 kts | 104° |
| 2026-05-06 19:14 | 49.76688 | 6.53688 | 12592 ft | 343 kts | 96° |
| 2026-05-06 19:15 | 49.76423 | 6.57345 | 12008 ft | 341 kts | 96° |
| 2026-05-06 19:15 | 49.76175 | 6.60985 | 11451 ft | 339 kts | 95° |
| 2026-05-06 19:15 | 49.75935 | 6.64603 | 10899 ft | 337 kts | 95° |
| 2026-05-06 19:15 | 49.75697 | 6.68193 | 10344 ft | 335 kts | 95° |
| 2026-05-06 19:16 | 49.75459 | 6.71746 | 10014 ft | 326 kts | 95° |
| 2026-05-06 19:16 | 49.75226 | 6.75153 | 9838 ft | 313 kts | 95° |
| 2026-05-06 19:16 | 49.74998 | 6.78459 | 9504 ft | 306 kts | 95° |
| 2026-05-06 19:16 | 49.74772 | 6.81703 | 9156 ft | 300 kts | 95° |
| 2026-05-06 19:17 | 49.74545 | 6.84888 | 8815 ft | 297 kts | 95° |
| 2026-05-06 19:17 | 49.74369 | 6.87997 | 8457 ft | 291 kts | 88° |
| 2026-05-06 19:17 | 49.74732 | 6.91022 | 8110 ft | 284 kts | 71° |
| 2026-05-06 19:17 | 49.75320 | 6.93905 | 7746 ft | 279 kts | 70° |
| 2026-05-06 19:18 | 49.75903 | 6.96745 | 7384 ft | 275 kts | 70° |
| 2026-05-06 19:18 | 49.76478 | 6.99551 | 6996 ft | 272 kts | 70° |
| 2026-05-06 19:18 | 49.77049 | 7.02323 | 6588 ft | 269 kts | 70° |
| 2026-05-06 19:18 | 49.77617 | 7.05069 | 6186 ft | 267 kts | 70° |
| 2026-05-06 19:19 | 49.78170 | 7.07756 | 5662 ft | 257 kts | 69° |
| 2026-05-06 19:19 | 49.78949 | 7.10164 | 5130 ft | 244 kts | 50° |
| 2026-05-06 19:19 | 49.80126 | 7.11911 | 4802 ft | 230 kts | 31° |
| 2026-05-06 19:19 | 49.81468 | 7.13229 | 4495 ft | 228 kts | 29° |
| 2026-05-06 19:20 | 49.82801 | 7.14532 | 4180 ft | 225 kts | 30° |
| 2026-05-06 19:20 | 49.84116 | 7.15821 | 3872 ft | 223 kts | 30° |
| 2026-05-06 19:20 | 49.85406 | 7.17086 | 3579 ft | 213 kts | 30° |
| 2026-05-06 19:20 | 49.86612 | 7.18272 | 3307 ft | 196 kts | 29° |
| 2026-05-06 19:21 | 49.87702 | 7.19344 | 3063 ft | 174 kts | 28° |
| 2026-05-06 19:21 | 49.88643 | 7.20270 | 2829 ft | 148 kts | 28° |
| 2026-05-06 19:21 | 49.89456 | 7.21069 | 2628 ft | 130 kts | 28° |
| 2026-05-06 19:21 | 49.90196 | 7.21794 | 2451 ft | 122 kts | 28° |
| 2026-05-06 19:22 | 49.90907 | 7.22482 | 2254 ft | 120 kts | 27° |
| 2026-05-06 19:22 | 49.91607 | 7.23178 | 2076 ft | 119 kts | 28° |
| 2026-05-06 19:22 | 49.92310 | 7.23874 | 1922 ft | 120 kts | 27° |
| 2026-05-06 19:22 | 49.93014 | 7.24561 | 1762 ft | 119 kts | 27° |
| 2026-05-06 19:23 | 49.93709 | 7.25228 | 1646 ft | 112 kts | 28° |
| 2026-05-06 19:23 | 49.94260 | 7.25774 | 1632 ft | 70 kts | 33° |
| 2026-05-06 19:23 | 49.94506 | 7.26028 | 1627 ft | 14 kts | 33° |
| 2026-05-06 19:23 | 49.94556 | 7.26156 | 1622 ft | 13 kts | 101° |
| 2026-05-06 19:24 | 49.94515 | 7.26267 | 1625 ft | 10 kts | 122° |
| 2026-05-06 19:24 | 49.94479 | 7.26358 | 1624 ft | 10 kts | 122° |
| 2026-05-06 19:24 | 49.94443 | 7.26444 | 1624 ft | 10 kts | 122° |
| 2026-05-06 19:24 | 49.94467 | 7.26540 | 1620 ft | 12 kts | 41° |
| 2026-05-06 19:25 | 49.94554 | 7.26631 | 1625 ft | 16 kts | 28° |
| 2026-05-06 19:25 | 49.94663 | 7.26665 | 1621 ft | 15 kts | 32° |
| 2026-05-06 19:25 | 49.94716 | 7.26734 | 1622 ft | 7 kts | 70° |
| 2026-05-06 19:25 | 49.94701 | 7.26807 | 1620 ft | 8 kts | 123° |
| 2026-05-06 19:26 | 49.94657 | 7.26818 | 1620 ft | 4 kts | 206° |
| 2026-05-06 19:26 | 49.94648 | 7.26810 | 1621 ft | 1 kts | 212° |
| 2026-05-06 19:26 | 49.94644 | 7.26806 | 1620 ft | 1 kts | 212° |
| 2026-05-06 19:26 | 49.94642 | 7.26805 | 1620 ft | 0 kts | 212° |